GIJÓN CAMPUS, ASTURIAS

latitud = 43° 31' 23''N | Longitud = 005° 37' 16''W
26 metros sobre el nivel del mar | datos mensuales

Fecha, hora, temperatura, viento dirección y velocidad, humedad y presión.

  • 21-01-2018 02:00:00 | 15.90°C | Sudoeste |8.00 km/h | 64.00% | 1024.00 hPa
  • 21-01-2018 01:00:00 | 15.70°C | Sudoeste |6.00 km/h | 65.00% | 1023.60 hPa
  • 21-01-2018 00:00:00 | 15.70°C | Sudoeste |5.00 km/h | 65.00% | 1023.10 hPa
  • 20-01-2018 23:00:00 | 15.80°C | Sudoeste |7.00 km/h | 64.00% | 1022.70 hPa
  • 20-01-2018 22:00:00 | 15.80°C | Sudoeste |9.00 km/h | 64.00% | 1022.60 hPa
  • 20-01-2018 21:00:00 | 15.70°C | Oeste |8.00 km/h | 65.00% | 1022.60 hPa
  • 20-01-2018 20:00:00 | 16.10°C | Oeste |8.00 km/h | 63.00% | 1022.00 hPa
  • 20-01-2018 19:00:00 | 16.20°C | Sudoeste |9.00 km/h | 62.00% | 1021.40 hPa
  • 20-01-2018 18:00:00 | 16.60°C | Sudoeste |10.00 km/h | 61.00% | 1020.80 hPa
  • 20-01-2018 17:00:00 | 17.20°C | Sudoeste |10.00 km/h | 60.00% | 1020.30 hPa
  • 20-01-2018 16:00:00 | 17.70°C | Sudoeste |13.00 km/h | 59.00% | 1019.60 hPa
  • 20-01-2018 15:00:00 | 17.40°C | Sudoeste |14.00 km/h | 58.00% | 1019.20 hPa
  • 20-01-2018 14:00:00 | 17.60°C | Sudoeste |13.00 km/h | 59.00% | 1019.70 hPa
  • 20-01-2018 13:00:00 | 17.40°C | Oeste |15.00 km/h | 58.00% | 1020.30 hPa
  • 20-01-2018 12:00:00 | 16.10°C | Sudoeste |10.00 km/h | 61.00% | 1020.80 hPa
  • 20-01-2018 11:00:00 | 14.30°C | Sudoeste |9.00 km/h | 63.00% | 1020.90 hPa
  • 20-01-2018 10:00:00 | 13.00°C | Sudoeste |15.00 km/h | 63.00% | 1020.60 hPa
  • 20-01-2018 09:00:00 | 9.60°C | Sudoeste |6.00 km/h | 68.00% | 1020.80 hPa
  • 20-01-2018 08:00:00 | 7.10°C | Noroeste |2.00 km/h | 85.00% | 1020.60 hPa
  • 20-01-2018 07:00:00 | 6.30°C | Sur |4.00 km/h | 90.00% | 1020.10 hPa
  • 20-01-2018 06:00:00 | 7.40°C | Este |4.00 km/h | 84.00% | 1020.20 hPa
  • 20-01-2018 05:00:00 | 8.60°C | Noroeste |4.00 km/h | 82.00% | 1020.20 hPa
  • 20-01-2018 04:00:00 | 8.40°C | Oeste |4.00 km/h | 81.00% | 1020.50 hPa
  • 20-01-2018 03:00:00 | 8.40°C | Oeste |3.00 km/h | 82.00% | 1021.40 hPa
    • Gijón hora a hora, datos reales de la temperatura, viento dirección, velocidad, más la humedad relativa y presión atmosférica.
      La estación meteorológica del Campus de Viesques de Gijón hora a hora, mes a mes, año a año; presentada de una forma gráfica, datos recogidos desde el mes de enero del año 2014. Recomendamos un ordenador de sobremesa: https://meteorologia.tike10.com/asturias-gijon.php